sensor_id;sensor_type;location;lat;lon;timestamp;P1;durP1;ratioP1;P2;durP2;ratioP2
12842;SDS011;35724;49.324;-123.118;2023-04-25T00:04:21;0.98;;;0.60;;
12842;SDS011;35724;49.324;-123.118;2023-04-25T00:14:29;1.42;;;0.70;;
12842;SDS011;35724;49.324;-123.118;2023-04-25T00:24:39;0.98;;;0.80;;
12842;SDS011;35724;49.324;-123.118;2023-04-25T00:34:46;1.33;;;0.60;;
12842;SDS011;35724;49.324;-123.118;2023-04-25T00:44:56;0.60;;;0.60;;
12842;SDS011;35724;49.324;-123.118;2023-04-25T00:55:04;0.60;;;0.60;;
12842;SDS011;35724;49.324;-123.118;2023-04-25T01:05:13;0.68;;;0.60;;
12842;SDS011;35724;49.324;-123.118;2023-04-25T01:15:22;0.93;;;0.68;;
12842;SDS011;35724;49.324;-123.118;2023-04-25T01:25:31;0.88;;;0.63;;
12842;SDS011;35724;49.324;-123.118;2023-04-25T01:35:39;0.65;;;0.65;;
12842;SDS011;35724;49.324;-123.118;2023-04-25T01:45:48;0.60;;;0.60;;
12842;SDS011;35724;49.324;-123.118;2023-04-25T01:55:56;0.80;;;0.60;;
12842;SDS011;35724;49.324;-123.118;2023-04-25T02:06:10;0.73;;;0.73;;
12842;SDS011;35724;49.324;-123.118;2023-04-25T02:16:19;3.45;;;0.95;;
12842;SDS011;35724;49.324;-123.118;2023-04-25T02:26:29;1.85;;;0.82;;
12842;SDS011;35724;49.324;-123.118;2023-04-25T02:36:36;0.70;;;0.70;;
12842;SDS011;35724;49.324;-123.118;2023-04-25T02:46:46;1.45;;;0.98;;
12842;SDS011;35724;49.324;-123.118;2023-04-25T02:56:53;0.77;;;0.70;;
12842;SDS011;35724;49.324;-123.118;2023-04-25T03:07:08;0.68;;;0.68;;
12842;SDS011;35724;49.324;-123.118;2023-04-25T03:17:15;1.38;;;0.50;;
12842;SDS011;35724;49.324;-123.118;2023-04-25T03:27:26;0.60;;;0.60;;
12842;SDS011;35724;49.324;-123.118;2023-04-25T03:37:33;0.65;;;0.65;;
12842;SDS011;35724;49.324;-123.118;2023-04-25T03:47:45;5.10;;;0.70;;
12842;SDS011;35724;49.324;-123.118;2023-04-25T03:58:08;2.05;;;0.63;;
12842;SDS011;35724;49.324;-123.118;2023-04-25T04:08:17;0.60;;;0.60;;
12842;SDS011;35724;49.324;-123.118;2023-04-25T04:18:25;0.60;;;0.60;;
12842;SDS011;35724;49.324;-123.118;2023-04-25T04:40:17;0.45;;;0.45;;
12842;SDS011;35724;49.324;-123.118;2023-04-25T05:02:34;0.70;;;0.63;;
12842;SDS011;35724;49.324;-123.118;2023-04-25T05:14:13;0.77;;;0.50;;
12842;SDS011;35724;49.324;-123.118;2023-04-25T05:24:46;1.95;;;1.70;;
12842;SDS011;35724;49.324;-123.118;2023-04-25T05:35:57;3.50;;;3.10;;
12842;SDS011;35724;49.324;-123.118;2023-04-25T05:58:05;2.15;;;1.90;;
12842;SDS011;35724;49.324;-123.118;2023-04-25T06:08:15;2.38;;;1.70;;
12842;SDS011;35724;49.324;-123.118;2023-04-25T06:29:31;1.55;;;1.33;;
12842;SDS011;35724;49.324;-123.118;2023-04-25T06:39:42;2.22;;;1.45;;
12842;SDS011;35724;49.324;-123.118;2023-04-25T06:49:51;1.20;;;1.10;;
12842;SDS011;35724;49.324;-123.118;2023-04-25T06:59:59;1.23;;;1.00;;
12842;SDS011;35724;49.324;-123.118;2023-04-25T07:10:11;0.80;;;0.80;;
12842;SDS011;35724;49.324;-123.118;2023-04-25T07:20:19;1.00;;;0.90;;
12842;SDS011;35724;49.324;-123.118;2023-04-25T07:30:28;1.02;;;0.95;;
12842;SDS011;35724;49.324;-123.118;2023-04-25T07:40:38;1.52;;;0.80;;
12842;SDS011;35724;49.324;-123.118;2023-04-25T07:50:48;0.90;;;0.90;;
12842;SDS011;35724;49.324;-123.118;2023-04-25T08:00:57;0.82;;;0.82;;
12842;SDS011;35724;49.324;-123.118;2023-04-25T08:11:12;0.55;;;0.55;;
12842;SDS011;35724;49.324;-123.118;2023-04-25T08:21:19;0.70;;;0.70;;
12842;SDS011;35724;49.324;-123.118;2023-04-25T08:31:31;0.70;;;0.70;;
12842;SDS011;35724;49.324;-123.118;2023-04-25T08:41:40;0.75;;;0.75;;
12842;SDS011;35724;49.324;-123.118;2023-04-25T08:51:49;0.50;;;0.50;;
12842;SDS011;35724;49.324;-123.118;2023-04-25T09:01:59;0.60;;;0.60;;
12842;SDS011;35724;49.324;-123.118;2023-04-25T09:12:09;0.60;;;0.60;;
12842;SDS011;35724;49.324;-123.118;2023-04-25T09:22:17;0.40;;;0.40;;
12842;SDS011;35724;49.324;-123.118;2023-04-25T09:32:29;0.60;;;0.60;;
12842;SDS011;35724;49.324;-123.118;2023-04-25T09:42:40;0.43;;;0.43;;
12842;SDS011;35724;49.324;-123.118;2023-04-25T09:53:02;0.43;;;0.43;;
12842;SDS011;35724;49.324;-123.118;2023-04-25T10:03:34;0.47;;;0.47;;
12842;SDS011;35724;49.324;-123.118;2023-04-25T10:14:11;0.47;;;0.47;;
12842;SDS011;35724;49.324;-123.118;2023-04-25T10:24:19;0.38;;;0.38;;
12842;SDS011;35724;49.324;-123.118;2023-04-25T10:34:39;0.30;;;0.30;;
12842;SDS011;35724;49.324;-123.118;2023-04-25T10:45:00;0.40;;;0.40;;
12842;SDS011;35724;49.324;-123.118;2023-04-25T10:55:11;0.38;;;0.38;;
12842;SDS011;35724;49.324;-123.118;2023-04-25T11:05:22;0.50;;;0.50;;
12842;SDS011;35724;49.324;-123.118;2023-04-25T11:15:42;0.47;;;0.47;;
12842;SDS011;35724;49.324;-123.118;2023-04-25T11:25:50;0.43;;;0.43;;
12842;SDS011;35724;49.324;-123.118;2023-04-25T11:36:00;0.30;;;0.30;;
12842;SDS011;35724;49.324;-123.118;2023-04-25T11:46:08;0.50;;;0.50;;
12842;SDS011;35724;49.324;-123.118;2023-04-25T11:56:17;0.52;;;0.52;;
12842;SDS011;35724;49.324;-123.118;2023-04-25T12:06:28;0.30;;;0.30;;
12842;SDS011;35724;49.324;-123.118;2023-04-25T12:16:44;0.40;;;0.40;;
12842;SDS011;35724;49.324;-123.118;2023-04-25T12:26:52;0.30;;;0.30;;
12842;SDS011;35724;49.324;-123.118;2023-04-25T12:37:07;0.38;;;0.38;;
12842;SDS011;35724;49.324;-123.118;2023-04-25T12:47:14;0.30;;;0.30;;
12842;SDS011;35724;49.324;-123.118;2023-04-25T12:57:23;0.40;;;0.40;;
12842;SDS011;35724;49.324;-123.118;2023-04-25T13:07:30;0.40;;;0.40;;
12842;SDS011;35724;49.324;-123.118;2023-04-25T13:17:39;0.40;;;0.40;;
12842;SDS011;35724;49.324;-123.118;2023-04-25T13:27:47;0.63;;;0.40;;
12842;SDS011;35724;49.324;-123.118;2023-04-25T13:37:56;0.32;;;0.32;;
12842;SDS011;35724;49.324;-123.118;2023-04-25T13:48:03;0.40;;;0.40;;
12842;SDS011;35724;49.324;-123.118;2023-04-25T13:58:12;0.40;;;0.40;;
12842;SDS011;35724;49.324;-123.118;2023-04-25T14:08:20;0.30;;;0.30;;
12842;SDS011;35724;49.324;-123.118;2023-04-25T14:18:28;0.52;;;0.52;;
12842;SDS011;35724;49.324;-123.118;2023-04-25T14:28:35;0.43;;;0.43;;
12842;SDS011;35724;49.324;-123.118;2023-04-25T15:01:53;3.50;;;0.80;;
12842;SDS011;35724;49.324;-123.118;2023-04-25T15:12:39;0.75;;;0.60;;
12842;SDS011;35724;49.324;-123.118;2023-04-25T15:22:54;2.88;;;0.80;;
12842;SDS011;35724;49.324;-123.118;2023-04-25T15:33:11;1.70;;;0.70;;
12842;SDS011;35724;49.324;-123.118;2023-04-25T15:43:23;0.60;;;0.60;;
12842;SDS011;35724;49.324;-123.118;2023-04-25T15:53:35;0.75;;;0.68;;
12842;SDS011;35724;49.324;-123.118;2023-04-25T16:03:45;0.70;;;0.68;;
12842;SDS011;35724;49.324;-123.118;2023-04-25T16:13:56;0.60;;;0.60;;
12842;SDS011;35724;49.324;-123.118;2023-04-25T16:24:05;0.98;;;0.90;;
12842;SDS011;35724;49.324;-123.118;2023-04-25T16:34:24;1.48;;;1.13;;
12842;SDS011;35724;49.324;-123.118;2023-04-25T16:44:35;2.90;;;1.20;;
12842;SDS011;35724;49.324;-123.118;2023-04-25T16:57:05;3.78;;;1.40;;
12842;SDS011;35724;49.324;-123.118;2023-04-25T17:05:33;3.10;;;1.20;;
12842;SDS011;35724;49.324;-123.118;2023-04-25T17:15:42;1.60;;;0.95;;
12842;SDS011;35724;49.324;-123.118;2023-04-25T17:25:51;2.13;;;1.05;;
12842;SDS011;35724;49.324;-123.118;2023-04-25T17:35:57;1.40;;;0.95;;
12842;SDS011;35724;49.324;-123.118;2023-04-25T17:46:08;1.88;;;1.10;;
12842;SDS011;35724;49.324;-123.118;2023-04-25T17:56:15;2.00;;;1.00;;
12842;SDS011;35724;49.324;-123.118;2023-04-25T18:06:31;1.67;;;1.10;;
12842;SDS011;35724;49.324;-123.118;2023-04-25T18:16:38;1.35;;;1.05;;
12842;SDS011;35724;49.324;-123.118;2023-04-25T18:26:55;1.55;;;0.90;;
12842;SDS011;35724;49.324;-123.118;2023-04-25T18:37:10;1.52;;;1.08;;
12842;SDS011;35724;49.324;-123.118;2023-04-25T18:47:19;1.45;;;1.10;;
12842;SDS011;35724;49.324;-123.118;2023-04-25T18:57:27;2.40;;;1.00;;
12842;SDS011;35724;49.324;-123.118;2023-04-25T19:07:37;1.77;;;0.90;;
12842;SDS011;35724;49.324;-123.118;2023-04-25T19:17:53;2.45;;;0.90;;
12842;SDS011;35724;49.324;-123.118;2023-04-25T19:28:10;4.85;;;1.02;;
12842;SDS011;35724;49.324;-123.118;2023-04-25T19:38:22;2.75;;;1.27;;
12842;SDS011;35724;49.324;-123.118;2023-04-25T20:00:28;1.02;;;0.60;;
12842;SDS011;35724;49.324;-123.118;2023-04-25T20:10:35;1.05;;;0.70;;
12842;SDS011;35724;49.324;-123.118;2023-04-25T20:20:44;0.70;;;0.60;;
12842;SDS011;35724;49.324;-123.118;2023-04-25T20:30:51;1.42;;;0.90;;
12842;SDS011;35724;49.324;-123.118;2023-04-25T20:41:04;3.78;;;1.90;;
12842;SDS011;35724;49.324;-123.118;2023-04-25T20:51:11;2.47;;;2.10;;
12842;SDS011;35724;49.324;-123.118;2023-04-25T21:01:20;1.50;;;1.40;;
12842;SDS011;35724;49.324;-123.118;2023-04-25T21:11:31;1.52;;;1.40;;
12842;SDS011;35724;49.324;-123.118;2023-04-25T21:21:41;1.08;;;0.95;;
12842;SDS011;35724;49.324;-123.118;2023-04-25T21:31:48;2.88;;;0.75;;
12842;SDS011;35724;49.324;-123.118;2023-04-25T21:41:57;1.52;;;0.60;;
12842;SDS011;35724;49.324;-123.118;2023-04-25T21:52:04;0.75;;;0.70;;
12842;SDS011;35724;49.324;-123.118;2023-04-25T22:02:14;0.90;;;0.70;;
12842;SDS011;35724;49.324;-123.118;2023-04-25T22:12:22;0.68;;;0.60;;
12842;SDS011;35724;49.324;-123.118;2023-04-25T22:22:34;0.88;;;0.60;;
12842;SDS011;35724;49.324;-123.118;2023-04-25T22:32:42;0.52;;;0.52;;
12842;SDS011;35724;49.324;-123.118;2023-04-25T22:42:51;0.70;;;0.55;;
12842;SDS011;35724;49.324;-123.118;2023-04-25T22:52:58;0.85;;;0.70;;
12842;SDS011;35724;49.324;-123.118;2023-04-25T23:03:08;0.60;;;0.52;;
12842;SDS011;35724;49.324;-123.118;2023-04-25T23:13:16;0.57;;;0.57;;
12842;SDS011;35724;49.324;-123.118;2023-04-25T23:23:25;0.57;;;0.57;;
12842;SDS011;35724;49.324;-123.118;2023-04-25T23:33:33;0.60;;;0.57;;
12842;SDS011;35724;49.324;-123.118;2023-04-25T23:43:42;0.95;;;0.70;;
12842;SDS011;35724;49.324;-123.118;2023-04-25T23:53:49;0.60;;;0.60;;
